sensor_id;sensor_type;location;lat;lon;timestamp;P1;durP1;ratioP1;P2;durP2;ratioP2
76423;SDS011;65257;52.104;4.268;2023-04-24T00:00:25;11.50;;;3.00;;
76423;SDS011;65257;52.104;4.268;2023-04-24T00:02:50;12.23;;;2.97;;
76423;SDS011;65257;52.104;4.268;2023-04-24T00:05:16;7.85;;;2.22;;
76423;SDS011;65257;52.104;4.268;2023-04-24T00:07:42;14.38;;;3.05;;
76423;SDS011;65257;52.104;4.268;2023-04-24T00:10:10;7.00;;;2.45;;
76423;SDS011;65257;52.104;4.268;2023-04-24T00:12:36;10.18;;;2.20;;
76423;SDS011;65257;52.104;4.268;2023-04-24T00:15:04;11.02;;;2.42;;
76423;SDS011;65257;52.104;4.268;2023-04-24T00:17:30;10.23;;;3.22;;
76423;SDS011;65257;52.104;4.268;2023-04-24T00:19:56;8.52;;;2.30;;
76423;SDS011;65257;52.104;4.268;2023-04-24T00:22:27;5.90;;;2.60;;
76423;SDS011;65257;52.104;4.268;2023-04-24T00:24:54;8.77;;;1.92;;
76423;SDS011;65257;52.104;4.268;2023-04-24T00:27:19;7.50;;;1.75;;
76423;SDS011;65257;52.104;4.268;2023-04-24T00:29:45;6.07;;;2.05;;
76423;SDS011;65257;52.104;4.268;2023-04-24T00:32:10;7.30;;;1.75;;
76423;SDS011;65257;52.104;4.268;2023-04-24T00:34:36;5.75;;;2.30;;
76423;SDS011;65257;52.104;4.268;2023-04-24T00:37:01;7.13;;;2.53;;
76423;SDS011;65257;52.104;4.268;2023-04-24T00:39:27;7.43;;;1.77;;
76423;SDS011;65257;52.104;4.268;2023-04-24T00:41:52;18.67;;;2.03;;
76423;SDS011;65257;52.104;4.268;2023-04-24T00:44:18;6.03;;;1.90;;
76423;SDS011;65257;52.104;4.268;2023-04-24T00:46:44;9.05;;;1.90;;
76423;SDS011;65257;52.104;4.268;2023-04-24T00:49:11;8.93;;;2.38;;
76423;SDS011;65257;52.104;4.268;2023-04-24T00:51:37;5.22;;;1.70;;
76423;SDS011;65257;52.104;4.268;2023-04-24T00:54:03;9.60;;;1.88;;
76423;SDS011;65257;52.104;4.268;2023-04-24T00:56:28;12.90;;;2.80;;
76423;SDS011;65257;52.104;4.268;2023-04-24T00:58:54;5.95;;;1.98;;
76423;SDS011;65257;52.104;4.268;2023-04-24T01:01:21;6.07;;;2.35;;
76423;SDS011;65257;52.104;4.268;2023-04-24T01:03:47;8.75;;;2.47;;
76423;SDS011;65257;52.104;4.268;2023-04-24T01:06:15;7.22;;;1.83;;
76423;SDS011;65257;52.104;4.268;2023-04-24T01:08:41;10.18;;;2.65;;
76423;SDS011;65257;52.104;4.268;2023-04-24T01:11:08;10.85;;;2.47;;
76423;SDS011;65257;52.104;4.268;2023-04-24T01:13:33;11.82;;;2.28;;
76423;SDS011;65257;52.104;4.268;2023-04-24T01:15:59;10.73;;;2.50;;
76423;SDS011;65257;52.104;4.268;2023-04-24T01:18:26;8.60;;;2.90;;
76423;SDS011;65257;52.104;4.268;2023-04-24T01:20:53;10.18;;;2.20;;
76423;SDS011;65257;52.104;4.268;2023-04-24T01:23:21;7.25;;;2.20;;
76423;SDS011;65257;52.104;4.268;2023-04-24T01:25:47;14.82;;;2.40;;
76423;SDS011;65257;52.104;4.268;2023-04-24T01:28:14;9.60;;;3.20;;
76423;SDS011;65257;52.104;4.268;2023-04-24T01:30:39;15.20;;;2.60;;
76423;SDS011;65257;52.104;4.268;2023-04-24T01:33:07;8.90;;;2.20;;
76423;SDS011;65257;52.104;4.268;2023-04-24T01:35:32;5.78;;;1.95;;
76423;SDS011;65257;52.104;4.268;2023-04-24T01:37:58;12.40;;;2.35;;
76423;SDS011;65257;52.104;4.268;2023-04-24T01:40:24;7.45;;;2.17;;
76423;SDS011;65257;52.104;4.268;2023-04-24T01:42:50;10.82;;;2.63;;
76423;SDS011;65257;52.104;4.268;2023-04-24T01:45:15;8.98;;;2.35;;
76423;SDS011;65257;52.104;4.268;2023-04-24T01:47:41;4.93;;;2.30;;
76423;SDS011;65257;52.104;4.268;2023-04-24T01:50:08;6.13;;;1.83;;
76423;SDS011;65257;52.104;4.268;2023-04-24T01:52:34;5.60;;;2.13;;
76423;SDS011;65257;52.104;4.268;2023-04-24T01:55:01;8.13;;;1.85;;
76423;SDS011;65257;52.104;4.268;2023-04-24T01:57:27;5.10;;;1.58;;
76423;SDS011;65257;52.104;4.268;2023-04-24T01:59:55;7.75;;;1.73;;
76423;SDS011;65257;52.104;4.268;2023-04-24T02:02:22;12.50;;;2.42;;
76423;SDS011;65257;52.104;4.268;2023-04-24T02:04:55;18.48;;;2.20;;
76423;SDS011;65257;52.104;4.268;2023-04-24T02:07:21;14.43;;;1.98;;
76423;SDS011;65257;52.104;4.268;2023-04-24T02:09:47;12.10;;;3.33;;
76423;SDS011;65257;52.104;4.268;2023-04-24T02:12:13;12.55;;;2.17;;
76423;SDS011;65257;52.104;4.268;2023-04-24T02:14:38;12.45;;;2.60;;
76423;SDS011;65257;52.104;4.268;2023-04-24T02:17:07;10.38;;;2.65;;
76423;SDS011;65257;52.104;4.268;2023-04-24T02:19:37;16.70;;;2.75;;
76423;SDS011;65257;52.104;4.268;2023-04-24T02:22:03;18.25;;;2.63;;
76423;SDS011;65257;52.104;4.268;2023-04-24T02:24:40;13.38;;;2.33;;
76423;SDS011;65257;52.104;4.268;2023-04-24T02:27:11;9.43;;;2.55;;
76423;SDS011;65257;52.104;4.268;2023-04-24T02:29:36;10.13;;;1.85;;
76423;SDS011;65257;52.104;4.268;2023-04-24T02:32:03;12.27;;;2.03;;
76423;SDS011;65257;52.104;4.268;2023-04-24T02:34:28;10.15;;;2.33;;
76423;SDS011;65257;52.104;4.268;2023-04-24T02:36:55;6.18;;;1.77;;
76423;SDS011;65257;52.104;4.268;2023-04-24T02:39:21;13.18;;;2.22;;
76423;SDS011;65257;52.104;4.268;2023-04-24T02:41:46;18.63;;;2.55;;
76423;SDS011;65257;52.104;4.268;2023-04-24T02:44:11;11.15;;;1.10;;
76423;SDS011;65257;52.104;4.268;2023-04-24T02:46:37;15.80;;;3.17;;
76423;SDS011;65257;52.104;4.268;2023-04-24T02:49:06;5.40;;;1.10;;
76423;SDS011;65257;52.104;4.268;2023-04-24T02:51:32;11.75;;;2.42;;
76423;SDS011;65257;52.104;4.268;2023-04-24T02:53:58;7.95;;;1.30;;
76423;SDS011;65257;52.104;4.268;2023-04-24T02:56:25;10.30;;;1.52;;
76423;SDS011;65257;52.104;4.268;2023-04-24T02:58:50;10.85;;;2.00;;
76423;SDS011;65257;52.104;4.268;2023-04-24T03:01:17;10.63;;;1.95;;
76423;SDS011;65257;52.104;4.268;2023-04-24T03:03:44;18.73;;;2.35;;
76423;SDS011;65257;52.104;4.268;2023-04-24T03:06:09;10.60;;;1.75;;
76423;SDS011;65257;52.104;4.268;2023-04-24T03:08:36;8.35;;;1.83;;
76423;SDS011;65257;52.104;4.268;2023-04-24T03:11:03;11.25;;;1.80;;
76423;SDS011;65257;52.104;4.268;2023-04-24T03:13:31;11.27;;;2.08;;
76423;SDS011;65257;52.104;4.268;2023-04-24T03:16:00;14.15;;;2.35;;
76423;SDS011;65257;52.104;4.268;2023-04-24T03:18:27;12.02;;;2.53;;
76423;SDS011;65257;52.104;4.268;2023-04-24T03:20:56;13.20;;;1.75;;
76423;SDS011;65257;52.104;4.268;2023-04-24T03:23:22;13.23;;;2.17;;
76423;SDS011;65257;52.104;4.268;2023-04-24T03:25:47;11.20;;;2.05;;
76423;SDS011;65257;52.104;4.268;2023-04-24T03:28:14;9.73;;;1.80;;
76423;SDS011;65257;52.104;4.268;2023-04-24T03:30:40;11.07;;;2.70;;
76423;SDS011;65257;52.104;4.268;2023-04-24T03:33:08;7.22;;;1.45;;
76423;SDS011;65257;52.104;4.268;2023-04-24T03:35:35;11.02;;;2.35;;
76423;SDS011;65257;52.104;4.268;2023-04-24T03:38:01;13.70;;;2.10;;
76423;SDS011;65257;52.104;4.268;2023-04-24T03:40:26;8.27;;;1.92;;
76423;SDS011;65257;52.104;4.268;2023-04-24T03:42:54;10.10;;;1.42;;
76423;SDS011;65257;52.104;4.268;2023-04-24T03:45:21;9.10;;;1.88;;
76423;SDS011;65257;52.104;4.268;2023-04-24T03:47:46;6.90;;;1.92;;
76423;SDS011;65257;52.104;4.268;2023-04-24T03:50:12;11.45;;;3.00;;
76423;SDS011;65257;52.104;4.268;2023-04-24T03:52:37;19.20;;;2.33;;
76423;SDS011;65257;52.104;4.268;2023-04-24T03:55:02;11.82;;;3.42;;
76423;SDS011;65257;52.104;4.268;2023-04-24T03:57:28;9.82;;;3.30;;
76423;SDS011;65257;52.104;4.268;2023-04-24T03:59:54;14.77;;;3.85;;
76423;SDS011;65257;52.104;4.268;2023-04-24T04:02:19;23.05;;;5.60;;
76423;SDS011;65257;52.104;4.268;2023-04-24T04:04:45;25.60;;;5.85;;
76423;SDS011;65257;52.104;4.268;2023-04-24T04:07:11;19.92;;;7.30;;
76423;SDS011;65257;52.104;4.268;2023-04-24T04:09:39;15.43;;;6.20;;
76423;SDS011;65257;52.104;4.268;2023-04-24T04:12:05;17.10;;;4.43;;
76423;SDS011;65257;52.104;4.268;2023-04-24T04:14:33;24.08;;;6.47;;
76423;SDS011;65257;52.104;4.268;2023-04-24T04:16:58;30.65;;;5.82;;
76423;SDS011;65257;52.104;4.268;2023-04-24T04:19:24;18.92;;;4.85;;
76423;SDS011;65257;52.104;4.268;2023-04-24T04:21:50;23.05;;;6.13;;
76423;SDS011;65257;52.104;4.268;2023-04-24T04:24:20;24.33;;;6.25;;
76423;SDS011;65257;52.104;4.268;2023-04-24T04:26:49;23.70;;;6.38;;
76423;SDS011;65257;52.104;4.268;2023-04-24T04:29:16;31.23;;;8.23;;
76423;SDS011;65257;52.104;4.268;2023-04-24T04:31:43;26.63;;;9.05;;
76423;SDS011;65257;52.104;4.268;2023-04-24T04:34:09;25.80;;;10.25;;
76423;SDS011;65257;52.104;4.268;2023-04-24T04:36:34;30.20;;;10.35;;
76423;SDS011;65257;52.104;4.268;2023-04-24T04:39:02;35.67;;;12.65;;
76423;SDS011;65257;52.104;4.268;2023-04-24T04:41:28;30.17;;;10.63;;
76423;SDS011;65257;52.104;4.268;2023-04-24T04:43:53;32.40;;;12.30;;
76423;SDS011;65257;52.104;4.268;2023-04-24T04:46:18;30.23;;;11.73;;
76423;SDS011;65257;52.104;4.268;2023-04-24T04:48:44;27.73;;;10.27;;
76423;SDS011;65257;52.104;4.268;2023-04-24T04:51:10;24.40;;;9.50;;
76423;SDS011;65257;52.104;4.268;2023-04-24T04:53:36;32.80;;;9.10;;
76423;SDS011;65257;52.104;4.268;2023-04-24T04:56:01;27.38;;;11.00;;
76423;SDS011;65257;52.104;4.268;2023-04-24T04:58:27;18.63;;;8.50;;
76423;SDS011;65257;52.104;4.268;2023-04-24T05:00:52;24.92;;;9.02;;
76423;SDS011;65257;52.104;4.268;2023-04-24T05:03:18;23.08;;;8.52;;
76423;SDS011;65257;52.104;4.268;2023-04-24T05:05:43;39.10;;;11.85;;
76423;SDS011;65257;52.104;4.268;2023-04-24T05:08:08;26.17;;;8.30;;
76423;SDS011;65257;52.104;4.268;2023-04-24T05:10:34;24.27;;;9.68;;
76423;SDS011;65257;52.104;4.268;2023-04-24T05:13:01;18.27;;;8.68;;
76423;SDS011;65257;52.104;4.268;2023-04-24T05:15:29;25.52;;;9.90;;
76423;SDS011;65257;52.104;4.268;2023-04-24T05:17:55;22.00;;;8.40;;
76423;SDS011;65257;52.104;4.268;2023-04-24T05:20:41;39.33;;;12.38;;
76423;SDS011;65257;52.104;4.268;2023-04-24T05:23:08;27.40;;;8.68;;
76423;SDS011;65257;52.104;4.268;2023-04-24T05:25:34;21.25;;;8.82;;
76423;SDS011;65257;52.104;4.268;2023-04-24T05:28:00;29.15;;;9.63;;
76423;SDS011;65257;52.104;4.268;2023-04-24T05:30:26;35.80;;;9.55;;
76423;SDS011;65257;52.104;4.268;2023-04-24T05:32:52;27.52;;;9.55;;
76423;SDS011;65257;52.104;4.268;2023-04-24T05:35:17;20.52;;;7.75;;
76423;SDS011;65257;52.104;4.268;2023-04-24T05:37:43;25.13;;;9.05;;
76423;SDS011;65257;52.104;4.268;2023-04-24T05:40:09;24.20;;;7.88;;
76423;SDS011;65257;52.104;4.268;2023-04-24T05:42:36;25.77;;;6.90;;
76423;SDS011;65257;52.104;4.268;2023-04-24T05:45:01;26.00;;;7.75;;
76423;SDS011;65257;52.104;4.268;2023-04-24T05:47:27;24.33;;;6.63;;
76423;SDS011;65257;52.104;4.268;2023-04-24T05:49:52;28.17;;;7.07;;
76423;SDS011;65257;52.104;4.268;2023-04-24T05:52:18;17.02;;;6.50;;
76423;SDS011;65257;52.104;4.268;2023-04-24T05:54:43;31.48;;;8.35;;
76423;SDS011;65257;52.104;4.268;2023-04-24T05:57:09;29.20;;;7.25;;
76423;SDS011;65257;52.104;4.268;2023-04-24T05:59:36;27.98;;;7.53;;
76423;SDS011;65257;52.104;4.268;2023-04-24T06:02:03;23.30;;;6.18;;
76423;SDS011;65257;52.104;4.268;2023-04-24T06:04:29;19.63;;;5.03;;
76423;SDS011;65257;52.104;4.268;2023-04-24T06:06:54;28.45;;;6.47;;
76423;SDS011;65257;52.104;4.268;2023-04-24T06:09:21;24.38;;;4.55;;
76423;SDS011;65257;52.104;4.268;2023-04-24T06:11:47;25.30;;;5.40;;
76423;SDS011;65257;52.104;4.268;2023-04-24T06:14:14;20.58;;;5.45;;
76423;SDS011;65257;52.104;4.268;2023-04-24T06:16:41;26.50;;;6.22;;
76423;SDS011;65257;52.104;4.268;2023-04-24T06:19:07;24.70;;;5.63;;
76423;SDS011;65257;52.104;4.268;2023-04-24T06:21:32;18.55;;;6.32;;
76423;SDS011;65257;52.104;4.268;2023-04-24T06:23:58;24.35;;;6.00;;
76423;SDS011;65257;52.104;4.268;2023-04-24T06:26:23;22.20;;;4.90;;
76423;SDS011;65257;52.104;4.268;2023-04-24T06:28:50;18.67;;;5.18;;
76423;SDS011;65257;52.104;4.268;2023-04-24T06:31:16;23.70;;;5.30;;
76423;SDS011;65257;52.104;4.268;2023-04-24T06:33:42;21.23;;;4.75;;
76423;SDS011;65257;52.104;4.268;2023-04-24T06:36:07;22.33;;;4.18;;
76423;SDS011;65257;52.104;4.268;2023-04-24T06:38:33;19.52;;;4.68;;
76423;SDS011;65257;52.104;4.268;2023-04-24T06:40:59;26.85;;;5.30;;
76423;SDS011;65257;52.104;4.268;2023-04-24T06:43:24;13.45;;;3.08;;
76423;SDS011;65257;52.104;4.268;2023-04-24T06:45:50;25.42;;;4.82;;
76423;SDS011;65257;52.104;4.268;2023-04-24T06:48:15;23.23;;;3.63;;
76423;SDS011;65257;52.104;4.268;2023-04-24T06:50:41;18.40;;;3.78;;
76423;SDS011;65257;52.104;4.268;2023-04-24T06:53:06;23.80;;;4.28;;
76423;SDS011;65257;52.104;4.268;2023-04-24T06:55:31;20.50;;;5.40;;
76423;SDS011;65257;52.104;4.268;2023-04-24T06:57:57;24.98;;;4.82;;
76423;SDS011;65257;52.104;4.268;2023-04-24T07:00:22;30.73;;;5.35;;
76423;SDS011;65257;52.104;4.268;2023-04-24T07:02:49;16.00;;;3.42;;
76423;SDS011;65257;52.104;4.268;2023-04-24T07:05:15;16.35;;;3.28;;
76423;SDS011;65257;52.104;4.268;2023-04-24T07:07:40;38.05;;;4.80;;
76423;SDS011;65257;52.104;4.268;2023-04-24T07:10:06;18.60;;;5.68;;
76423;SDS011;65257;52.104;4.268;2023-04-24T07:12:33;15.75;;;3.40;;
76423;SDS011;65257;52.104;4.268;2023-04-24T07:14:59;19.40;;;4.38;;
76423;SDS011;65257;52.104;4.268;2023-04-24T07:17:25;27.23;;;4.10;;
76423;SDS011;65257;52.104;4.268;2023-04-24T07:19:50;33.25;;;5.22;;
76423;SDS011;65257;52.104;4.268;2023-04-24T07:22:16;23.08;;;3.60;;
76423;SDS011;65257;52.104;4.268;2023-04-24T07:24:43;16.75;;;3.75;;
76423;SDS011;65257;52.104;4.268;2023-04-24T07:27:08;20.77;;;4.43;;
76423;SDS011;65257;52.104;4.268;2023-04-24T07:29:34;23.15;;;3.88;;
76423;SDS011;65257;52.104;4.268;2023-04-24T07:32:00;24.90;;;4.13;;
76423;SDS011;65257;52.104;4.268;2023-04-24T07:34:26;22.42;;;4.85;;
76423;SDS011;65257;52.104;4.268;2023-04-24T07:36:51;27.05;;;4.50;;
76423;SDS011;65257;52.104;4.268;2023-04-24T07:39:17;19.05;;;4.22;;
76423;SDS011;65257;52.104;4.268;2023-04-24T07:41:43;16.10;;;3.17;;
76423;SDS011;65257;52.104;4.268;2023-04-24T07:44:08;25.88;;;4.30;;
76423;SDS011;65257;52.104;4.268;2023-04-24T07:46:33;16.88;;;4.47;;
76423;SDS011;65257;52.104;4.268;2023-04-24T07:48:59;17.50;;;3.55;;
76423;SDS011;65257;52.104;4.268;2023-04-24T07:51:26;25.23;;;4.25;;
76423;SDS011;65257;52.104;4.268;2023-04-24T07:53:55;13.13;;;3.25;;
76423;SDS011;65257;52.104;4.268;2023-04-24T07:56:21;24.20;;;3.20;;
76423;SDS011;65257;52.104;4.268;2023-04-24T07:58:46;13.40;;;2.80;;
76423;SDS011;65257;52.104;4.268;2023-04-24T08:01:12;11.25;;;2.25;;
76423;SDS011;65257;52.104;4.268;2023-04-24T08:03:37;18.17;;;4.47;;
76423;SDS011;65257;52.104;4.268;2023-04-24T08:06:03;17.83;;;3.80;;
76423;SDS011;65257;52.104;4.268;2023-04-24T08:08:29;14.07;;;2.67;;
76423;SDS011;65257;52.104;4.268;2023-04-24T08:10:54;12.68;;;3.17;;
76423;SDS011;65257;52.104;4.268;2023-04-24T08:13:20;19.58;;;4.28;;
76423;SDS011;65257;52.104;4.268;2023-04-24T08:15:52;14.65;;;3.20;;
76423;SDS011;65257;52.104;4.268;2023-04-24T08:18:19;17.92;;;3.70;;
76423;SDS011;65257;52.104;4.268;2023-04-24T08:20:46;18.35;;;3.80;;
76423;SDS011;65257;52.104;4.268;2023-04-24T08:23:14;24.80;;;5.22;;
76423;SDS011;65257;52.104;4.268;2023-04-24T08:25:44;13.02;;;3.40;;
76423;SDS011;65257;52.104;4.268;2023-04-24T08:28:10;22.40;;;4.05;;
76423;SDS011;65257;52.104;4.268;2023-04-24T08:30:37;24.77;;;3.72;;
76423;SDS011;65257;52.104;4.268;2023-04-24T08:33:06;15.50;;;3.50;;
76423;SDS011;65257;52.104;4.268;2023-04-24T08:35:41;15.73;;;2.65;;
76423;SDS011;65257;52.104;4.268;2023-04-24T08:38:07;24.20;;;4.07;;
76423;SDS011;65257;52.104;4.268;2023-04-24T08:40:56;19.83;;;4.80;;
76423;SDS011;65257;52.104;4.268;2023-04-24T08:43:23;13.77;;;2.40;;
76423;SDS011;65257;52.104;4.268;2023-04-24T08:45:52;24.23;;;3.45;;
76423;SDS011;65257;52.104;4.268;2023-04-24T08:48:26;11.07;;;2.47;;
76423;SDS011;65257;52.104;4.268;2023-04-24T08:50:56;19.83;;;3.58;;
76423;SDS011;65257;52.104;4.268;2023-04-24T08:53:26;7.72;;;1.92;;
76423;SDS011;65257;52.104;4.268;2023-04-24T08:55:52;16.98;;;3.22;;
76423;SDS011;65257;52.104;4.268;2023-04-24T08:58:27;17.73;;;3.78;;
76423;SDS011;65257;52.104;4.268;2023-04-24T09:01:00;11.07;;;2.78;;
76423;SDS011;65257;52.104;4.268;2023-04-24T09:03:33;15.55;;;2.65;;
76423;SDS011;65257;52.104;4.268;2023-04-24T09:06:02;16.92;;;2.90;;
76423;SDS011;65257;52.104;4.268;2023-04-24T09:08:32;30.42;;;4.72;;
76423;SDS011;65257;52.104;4.268;2023-04-24T09:10:59;16.65;;;2.30;;
76423;SDS011;65257;52.104;4.268;2023-04-24T09:13:28;20.38;;;3.42;;
76423;SDS011;65257;52.104;4.268;2023-04-24T09:15:56;17.55;;;3.20;;
76423;SDS011;65257;52.104;4.268;2023-04-24T09:18:24;12.48;;;2.78;;
76423;SDS011;65257;52.104;4.268;2023-04-24T09:23:31;18.27;;;3.13;;
76423;SDS011;65257;52.104;4.268;2023-04-24T09:26:01;15.52;;;2.75;;
76423;SDS011;65257;52.104;4.268;2023-04-24T09:28:31;13.43;;;3.05;;
76423;SDS011;65257;52.104;4.268;2023-04-24T09:31:03;20.75;;;2.45;;
76423;SDS011;65257;52.104;4.268;2023-04-24T09:33:35;13.07;;;3.00;;
76423;SDS011;65257;52.104;4.268;2023-04-24T09:36:03;19.17;;;4.18;;
76423;SDS011;65257;52.104;4.268;2023-04-24T09:38:33;15.55;;;3.45;;
76423;SDS011;65257;52.104;4.268;2023-04-24T09:41:06;11.13;;;2.80;;
76423;SDS011;65257;52.104;4.268;2023-04-24T09:43:49;20.23;;;3.55;;
76423;SDS011;65257;52.104;4.268;2023-04-24T09:46:20;16.67;;;3.25;;
76423;SDS011;65257;52.104;4.268;2023-04-24T09:49:02;14.55;;;2.60;;
76423;SDS011;65257;52.104;4.268;2023-04-24T09:52:03;7.10;;;2.03;;
76423;SDS011;65257;52.104;4.268;2023-04-24T09:54:36;14.20;;;2.63;;
76423;SDS011;65257;52.104;4.268;2023-04-24T09:57:03;18.10;;;2.38;;
76423;SDS011;65257;52.104;4.268;2023-04-24T09:59:41;12.60;;;2.22;;
76423;SDS011;65257;52.104;4.268;2023-04-24T10:02:17;16.92;;;3.50;;
76423;SDS011;65257;52.104;4.268;2023-04-24T10:04:56;14.77;;;2.35;;
76423;SDS011;65257;52.104;4.268;2023-04-24T10:07:28;13.07;;;2.67;;
76423;SDS011;65257;52.104;4.268;2023-04-24T10:09:54;13.43;;;3.50;;
76423;SDS011;65257;52.104;4.268;2023-04-24T10:12:22;15.88;;;2.50;;
76423;SDS011;65257;52.104;4.268;2023-04-24T10:14:59;16.77;;;3.22;;
76423;SDS011;65257;52.104;4.268;2023-04-24T10:17:26;14.75;;;3.10;;
76423;SDS011;65257;52.104;4.268;2023-04-24T10:19:55;13.00;;;3.40;;
76423;SDS011;65257;52.104;4.268;2023-04-24T10:24:51;12.88;;;2.83;;
76423;SDS011;65257;52.104;4.268;2023-04-24T10:27:18;11.43;;;2.78;;
76423;SDS011;65257;52.104;4.268;2023-04-24T10:29:46;12.18;;;2.80;;
76423;SDS011;65257;52.104;4.268;2023-04-24T10:32:12;19.45;;;3.20;;
76423;SDS011;65257;52.104;4.268;2023-04-24T10:34:59;26.10;;;4.45;;
76423;SDS011;65257;52.104;4.268;2023-04-24T10:37:28;13.10;;;2.67;;
76423;SDS011;65257;52.104;4.268;2023-04-24T10:39:56;16.77;;;2.88;;
76423;SDS011;65257;52.104;4.268;2023-04-24T10:42:23;9.73;;;1.50;;
76423;SDS011;65257;52.104;4.268;2023-04-24T10:44:49;20.67;;;2.75;;
76423;SDS011;65257;52.104;4.268;2023-04-24T10:47:18;12.63;;;2.45;;
76423;SDS011;65257;52.104;4.268;2023-04-24T10:49:50;24.75;;;2.88;;
76423;SDS011;65257;52.104;4.268;2023-04-24T10:52:17;6.28;;;1.70;;
76423;SDS011;65257;52.104;4.268;2023-04-24T10:54:46;10.95;;;2.10;;
76423;SDS011;65257;52.104;4.268;2023-04-24T11:02:42;18.60;;;3.88;;
76423;SDS011;65257;52.104;4.268;2023-04-24T11:05:16;14.65;;;2.63;;
76423;SDS011;65257;52.104;4.268;2023-04-24T11:10:45;12.07;;;2.20;;
76423;SDS011;65257;52.104;4.268;2023-04-24T11:13:16;11.45;;;2.13;;
76423;SDS011;65257;52.104;4.268;2023-04-24T11:15:42;17.40;;;2.38;;
76423;SDS011;65257;52.104;4.268;2023-04-24T11:18:12;16.42;;;2.00;;
76423;SDS011;65257;52.104;4.268;2023-04-24T11:20:41;15.38;;;2.22;;
76423;SDS011;65257;52.104;4.268;2023-04-24T11:23:08;17.52;;;2.20;;
76423;SDS011;65257;52.104;4.268;2023-04-24T11:25:37;15.75;;;2.78;;
76423;SDS011;65257;52.104;4.268;2023-04-24T11:28:04;16.27;;;2.92;;
76423;SDS011;65257;52.104;4.268;2023-04-24T11:30:32;12.52;;;2.50;;
76423;SDS011;65257;52.104;4.268;2023-04-24T11:33:02;15.90;;;2.47;;
76423;SDS011;65257;52.104;4.268;2023-04-24T11:35:34;17.65;;;2.08;;
76423;SDS011;65257;52.104;4.268;2023-04-24T11:38:04;12.13;;;2.83;;
76423;SDS011;65257;52.104;4.268;2023-04-24T11:40:30;14.55;;;2.28;;
76423;SDS011;65257;52.104;4.268;2023-04-24T11:42:59;14.65;;;2.55;;
76423;SDS011;65257;52.104;4.268;2023-04-24T11:45:47;8.77;;;1.90;;
76423;SDS011;65257;52.104;4.268;2023-04-24T11:48:20;14.30;;;2.92;;
76423;SDS011;65257;52.104;4.268;2023-04-24T11:51:04;23.75;;;4.10;;
76423;SDS011;65257;52.104;4.268;2023-04-24T11:53:47;15.82;;;3.13;;
76423;SDS011;65257;52.104;4.268;2023-04-24T11:56:46;7.68;;;1.85;;
76423;SDS011;65257;52.104;4.268;2023-04-24T11:59:47;17.65;;;3.72;;
76423;SDS011;65257;52.104;4.268;2023-04-24T12:02:27;17.55;;;3.30;;
76423;SDS011;65257;52.104;4.268;2023-04-24T12:05:34;25.40;;;3.53;;
76423;SDS011;65257;52.104;4.268;2023-04-24T12:08:04;24.75;;;4.07;;
76423;SDS011;65257;52.104;4.268;2023-04-24T12:10:31;15.77;;;3.80;;
76423;SDS011;65257;52.104;4.268;2023-04-24T12:13:22;28.92;;;5.95;;
76423;SDS011;65257;52.104;4.268;2023-04-24T12:15:51;31.55;;;4.95;;
76423;SDS011;65257;52.104;4.268;2023-04-24T12:18:21;23.17;;;4.20;;
76423;SDS011;65257;52.104;4.268;2023-04-24T12:20:47;23.95;;;3.97;;
76423;SDS011;65257;52.104;4.268;2023-04-24T12:23:35;26.38;;;5.25;;
76423;SDS011;65257;52.104;4.268;2023-04-24T12:26:03;21.05;;;4.72;;
76423;SDS011;65257;52.104;4.268;2023-04-24T12:28:34;13.98;;;3.15;;
76423;SDS011;65257;52.104;4.268;2023-04-24T12:31:03;23.42;;;4.72;;
76423;SDS011;65257;52.104;4.268;2023-04-24T12:33:32;23.40;;;3.65;;
76423;SDS011;65257;52.104;4.268;2023-04-24T12:35:59;17.58;;;3.45;;
76423;SDS011;65257;52.104;4.268;2023-04-24T12:38:25;23.63;;;3.58;;
76423;SDS011;65257;52.104;4.268;2023-04-24T12:41:11;24.63;;;4.75;;
76423;SDS011;65257;52.104;4.268;2023-04-24T12:43:38;23.85;;;3.60;;
76423;SDS011;65257;52.104;4.268;2023-04-24T12:46:15;23.35;;;3.85;;
76423;SDS011;65257;52.104;4.268;2023-04-24T12:48:42;32.03;;;4.47;;
76423;SDS011;65257;52.104;4.268;2023-04-24T12:51:07;21.77;;;4.20;;
76423;SDS011;65257;52.104;4.268;2023-04-24T12:53:33;19.20;;;3.05;;
76423;SDS011;65257;52.104;4.268;2023-04-24T12:55:58;15.02;;;3.13;;
76423;SDS011;65257;52.104;4.268;2023-04-24T12:58:24;19.98;;;3.60;;
76423;SDS011;65257;52.104;4.268;2023-04-24T13:00:49;16.00;;;3.03;;
76423;SDS011;65257;52.104;4.268;2023-04-24T13:03:15;16.85;;;3.78;;
76423;SDS011;65257;52.104;4.268;2023-04-24T13:05:42;15.55;;;2.58;;
76423;SDS011;65257;52.104;4.268;2023-04-24T13:08:08;27.55;;;3.38;;
76423;SDS011;65257;52.104;4.268;2023-04-24T13:10:34;11.00;;;2.75;;
76423;SDS011;65257;52.104;4.268;2023-04-24T13:12:59;18.10;;;3.35;;
76423;SDS011;65257;52.104;4.268;2023-04-24T13:15:25;21.67;;;3.50;;
76423;SDS011;65257;52.104;4.268;2023-04-24T13:17:50;23.00;;;3.78;;
76423;SDS011;65257;52.104;4.268;2023-04-24T13:20:15;21.35;;;3.88;;
76423;SDS011;65257;52.104;4.268;2023-04-24T13:22:41;29.52;;;5.00;;
76423;SDS011;65257;52.104;4.268;2023-04-24T13:25:07;21.25;;;4.10;;
76423;SDS011;65257;52.104;4.268;2023-04-24T13:27:32;22.35;;;4.47;;
76423;SDS011;65257;52.104;4.268;2023-04-24T13:29:58;36.88;;;5.07;;
76423;SDS011;65257;52.104;4.268;2023-04-24T13:32:23;29.25;;;4.43;;
76423;SDS011;65257;52.104;4.268;2023-04-24T13:34:49;13.55;;;2.28;;
76423;SDS011;65257;52.104;4.268;2023-04-24T13:37:14;15.70;;;3.75;;
76423;SDS011;65257;52.104;4.268;2023-04-24T13:39:40;26.83;;;4.80;;
76423;SDS011;65257;52.104;4.268;2023-04-24T13:42:06;25.75;;;5.03;;
76423;SDS011;65257;52.104;4.268;2023-04-24T13:44:31;29.67;;;5.88;;
76423;SDS011;65257;52.104;4.268;2023-04-24T13:46:57;26.13;;;5.50;;
76423;SDS011;65257;52.104;4.268;2023-04-24T13:49:23;12.23;;;4.18;;
76423;SDS011;65257;52.104;4.268;2023-04-24T13:51:50;16.30;;;3.72;;
76423;SDS011;65257;52.104;4.268;2023-04-24T13:54:16;13.40;;;3.33;;
76423;SDS011;65257;52.104;4.268;2023-04-24T13:56:42;18.60;;;3.50;;
76423;SDS011;65257;52.104;4.268;2023-04-24T13:59:07;13.80;;;3.47;;
76423;SDS011;65257;52.104;4.268;2023-04-24T14:01:33;14.57;;;3.45;;
76423;SDS011;65257;52.104;4.268;2023-04-24T14:03:59;11.95;;;3.05;;
76423;SDS011;65257;52.104;4.268;2023-04-24T14:06:24;14.95;;;4.18;;
76423;SDS011;65257;52.104;4.268;2023-04-24T14:08:51;16.35;;;3.90;;
76423;SDS011;65257;52.104;4.268;2023-04-24T14:11:17;23.02;;;4.80;;
76423;SDS011;65257;52.104;4.268;2023-04-24T14:13:43;19.63;;;5.05;;
76423;SDS011;65257;52.104;4.268;2023-04-24T14:16:10;15.80;;;4.10;;
76423;SDS011;65257;52.104;4.268;2023-04-24T14:18:36;14.55;;;3.22;;
76423;SDS011;65257;52.104;4.268;2023-04-24T14:21:05;19.38;;;4.13;;
76423;SDS011;65257;52.104;4.268;2023-04-24T14:23:31;18.75;;;4.45;;
76423;SDS011;65257;52.104;4.268;2023-04-24T14:25:57;17.77;;;3.08;;
76423;SDS011;65257;52.104;4.268;2023-04-24T14:28:22;16.30;;;3.85;;
76423;SDS011;65257;52.104;4.268;2023-04-24T14:30:49;17.02;;;3.80;;
76423;SDS011;65257;52.104;4.268;2023-04-24T14:33:14;13.88;;;3.97;;
76423;SDS011;65257;52.104;4.268;2023-04-24T14:35:40;12.35;;;3.28;;
76423;SDS011;65257;52.104;4.268;2023-04-24T14:38:07;19.40;;;3.50;;
76423;SDS011;65257;52.104;4.268;2023-04-24T14:40:32;15.55;;;3.53;;
76423;SDS011;65257;52.104;4.268;2023-04-24T14:42:58;16.65;;;4.15;;
76423;SDS011;65257;52.104;4.268;2023-04-24T14:45:24;20.13;;;4.40;;
76423;SDS011;65257;52.104;4.268;2023-04-24T14:47:50;19.60;;;3.40;;
76423;SDS011;65257;52.104;4.268;2023-04-24T14:50:15;28.95;;;5.25;;
76423;SDS011;65257;52.104;4.268;2023-04-24T14:52:41;25.60;;;4.32;;